Flight Track Log - Related Links

Times and Time Zones

All times are in EDT time to prevent confusion due to time zone crossing. See the SWA407 flight status page for this flight to view local times or setup timezone preferences in your user account.

Time Position Orientation Groundspeed Altitude Reporting Facility
EDT Latitude Longitude Course Direction KTS MPH feet Rate Location/Type
Fri 11:50:59 PM 37.7000 -122.4000 332° Northwest 228 262 5,100  Level Northern Cal TRACON
Fri 11:53:05 PM 37.5578 -122.4622 199° South 275 316 12,200 3,209 Climbing Oakland Center
Fri 11:54:06 PM 37.4583 -122.4806 188° South 357 411 15,100 3,049 Climbing Oakland Center
Fri 11:55:00 PM 37.2089 -122.5308 185° South  Level FlightAware Approximate
Fri 11:55:07 PM 37.3522 -122.4994 188° South 381 438 18,400  Level Oakland Center
Fri 11:56:08 PM 37.2400 -122.5197 188° South 403 464 21,500 3,000 Climbing Oakland Center
Fri 11:57:09 PM 37.1247 -122.5408 188° South 415 478 24,500 2,607 Climbing Oakland Center
Fri 11:58:10 PM 37.0042 -122.5622 188° South 434 499 26,800 2,182 Climbing Oakland Center
Fri 11:59:10 PM 36.8944 -122.4711 146° Southeast 466 536 28,900 2,132 Climbing Oakland Center
Sat 12:00:11 AM 36.7886 -122.3650 141° Southeast 486 559 31,100 2,213 Climbing Oakland Center
Sat 12:01:12 AM 36.6831 -122.2581 141° Southeast 491 565 33,400 2,361 Climbing Oakland Center
Sat 12:02:13 AM 36.5567 -122.1344 142° Southeast 485 558 35,900 2,115 Climbing Oakland Center
Sat 12:03:14 AM 36.4525 -122.0319 142° Southeast 478 550 37,700 1,475 Climbing Oakland Center
Sat 12:04:15 AM 36.3489 -121.9306 142° Southeast 475 547 38,900 639 Climbing Oakland Center
Sat 12:05:16 AM 36.2492 -121.8225 139° Southeast 477 549 39,000 49 Climbing Oakland Center
Sat 12:06:17 AM 36.1786 -121.7044 126° Southeast 483 556 39,000  Level Oakland Center
Sat 12:07:18 AM 36.0761 -121.5483 129° Southeast 486 559 39,000  Level Oakland Center
Sat 12:08:19 AM 35.9900 -121.4211 130° Southeast 484 557 39,000  Level Oakland Center
Sat 12:09:20 AM 35.9050 -121.2925 129° Southeast 484 557 39,000  Level Oakland Center
Sat 12:10:20 AM 35.8203 -121.1636 129° Southeast 484 557 39,000  Level Oakland Center
Sat 12:11:21 AM 35.7367 -121.0358 129° Southeast 481 554 39,000  Level Oakland Center
Sat 12:12:22 AM 35.6508 -120.9083 130° Southeast 483 556 39,000  Level Oakland Center
Sat 12:13:23 AM 35.5661 -120.7822 130° Southeast 481 554 39,000  Level Oakland Center
Sat 12:14:24 AM 35.4811 -120.6550 129° Southeast 484 557 39,000 -492 Level Oakland Center
Sat 12:15:25 AM 35.3969 -120.5308 130° Southeast 482 555 38,000 -984 Descending Oakland Center
Sat 12:16:26 AM 35.3061 -120.3967 130° Southeast 484 557 37,000 -492 Descending Oakland Center
Sat 12:17:27 AM 35.2128 -120.2569 129° Southeast 490 564 37,000  Level Oakland Center
Sat 12:18:28 AM 35.1275 -120.1319 130° Southeast 486 559 37,000  Level Oakland Center
Sat 12:19:29 AM 35.0414 -120.0061 130° Southeast 485 558 37,000  Level Oakland Center
Sat 12:20:30 AM 34.9544 -119.8797 130° Southeast 487 560 37,000  Level Oakland Center
Sat 12:21:31 AM 34.8675 -119.7544 130° Southeast 486 559 37,000  Level Oakland Center
Sat 12:22:32 AM 34.7806 -119.6281 130° Southeast 487 560 37,000  Level Oakland Center
Sat 12:22:47 AM 34.7636 -119.6028 129° Southeast 485 558 37,000  Level Los Angeles Center
Sat 12:23:48 AM 34.6583 -119.4525 130° Southeast 487 560 37,000 -295 Level Los Angeles Center
Sat 12:24:49 AM 34.5775 -119.3403 131° Southeast 487 560 36,400 -732 Descending Los Angeles Center
Sat 12:25:51 AM 34.4889 -119.2150 131° Southeast 491 565 35,500 -683 Descending Los Angeles Center
Sat 12:26:52 AM 34.4003 -119.0894 131° Southeast 490 564 35,000 -246 Descending Los Angeles Center
Sat 12:27:53 AM 34.3133 -118.9653 130° Southeast 485 558 35,000  Level Los Angeles Center
Sat 12:28:55 AM 34.2069 -118.8169 131° Southeast 487 560 35,000  Level Los Angeles Center
Sat 12:29:56 AM 34.1181 -118.6919 131° Southeast 490 564 35,000  Level Los Angeles Center
Sat 12:30:57 AM 34.0289 -118.5672 131° Southeast 491 565 35,000  Level Los Angeles Center
Sat 12:31:59 AM 33.9397 -118.4422 131° Southeast 490 564 35,000  Level Los Angeles Center
Sat 12:33:00 AM 33.8467 -118.3256 134° Southeast 490 564 35,000 -1,328 Level Los Angeles Center
Sat 12:34:01 AM 33.7542 -118.2075 133° Southeast 488 562 32,300 -3,098 Descending Los Angeles Center
Sat 12:35:02 AM 33.6514 -118.0717 132° Southeast 502 578 28,700 -2,976 Descending Los Angeles Center
Sat 12:36:04 AM 33.5589 -117.9547 133° Southeast 485 558 26,200 -2,341 Descending Los Angeles Center
Sat 12:37:05 AM 33.4678 -117.8419 134° Southeast 467 537 23,900 -2,414 Descending Los Angeles Center
Sat 12:37:31 AM 33.4333 -117.7833 125° Southeast 437 503 22,700 -2,442 Descending Southern California TRACON
Sat 12:38:31 AM 33.3500 -117.6833 135° Southeast 433 498 20,400 -2,227 Descending Southern California TRACON
Sat 12:39:08 AM 33.3031 -117.6336 138° Southeast 431 496 19,100 -2,400 Descending Los Angeles Center
Sat 12:39:31 AM 33.2667 -117.5833 131° Southeast 419 482 18,000 -2,458 Descending Southern California TRACON
Sat 12:40:31 AM 33.1833 -117.5000 140° Southeast 412 474 15,700 -2,150 Descending Southern California TRACON
Sat 12:41:31 AM 33.0833 -117.4333 151° Southeast 386 444 13,700 -1,723 Descending Southern California TRACON
Sat 12:42:12 AM 33.0425 -117.3917 139° Southeast 387 445 12,800 -1,700 Descending Los Angeles Center
Sat 12:42:31 AM 33.0000 -117.3667 154° Southeast 369 425 12,000 -2,219 Descending Southern California TRACON
Sat 12:43:25 AM 32.9167 -117.3000 146° Southeast 357 411 10,100 -1,456 Descending Southern California TRACON
Sat 12:44:14 AM 32.8611 -117.2478 142° Southeast 353 406 9,500 -873 Descending Los Angeles Center
Sat 12:45:15 AM 32.8036 -117.1814 136° Southeast 306 352 8,500 -738 Descending Los Angeles Center
Sat 12:46:16 AM 32.7883 -117.1058 104° East 275 316 8,000 -632 Descending Los Angeles Center
Sat 12:46:31 AM 32.7833 -117.0667 99° East 229 264 7,700 -960 Descending Southern California TRACON
Sat 12:47:31 AM 32.7667 -117.0167 112° Southeast 199 229 6,800 -1,000 Descending Southern California TRACON
Sat 12:48:31 AM 32.7500 -116.9500 107° East 196 226 5,700 -900 Descending Southern California TRACON
Sat 12:49:31 AM 32.7167 -116.9167 140° Southeast 206 237 5,000 -714 Descending Southern California TRACON
Sat 12:50:37 AM 32.6833 -116.9500 220° Southwest 190 219 4,200 -857 Descending Southern California TRACON
Sat 12:51:37 AM 32.6833 -117.0000 270° West 175 201 3,200 -950 Descending Southern California TRACON
Sat 12:52:37 AM 32.7000 -117.0500 292° West 172 198 2,300 -950 Descending Southern California TRACON
Sat 12:53:37 AM 32.7167 -117.1000 292° West 165 190 1,300 -881 Descending Southern California TRACON
Sat 12:54:26 AM 32.7211 -117.1406 277° West 157 181 700 18,382 Descending Los Angeles Center
Sat 12:55:27 AM 32.7347 -117.1911 288° West 142 163 35,000 33,738 Climbing Los Angeles Center

Login

Don't have an account? Register now (free) for customized features, flight alerts, and more!